Virginia Beach, VA (23450)

1:47 AM EDT on July 26, 2016 (GMT -0400)
Kings Point | | Change Station
Active Advisory: Heat Advisory

Elev 26 ft 36.85 °N, 76.09 °W | Updated 35 seconds ago

Mostly Cloudy
Mostly Cloudy
82.8 °F
Feels Like 87 °F
N
4.2
Wind Variable Wind from SSE

Today
High -- | Low -- °F
--% Chance of Precip.
Yesterday
High -- | Low -- °F
Precip. -- in
Pressure 29.95 in
Visibility 10.0 miles
Clouds Mostly Cloudy 28000 ft
Heat Index 87 °F
Dew Point 71 °F
Humidity 68%
Rainfall 0.00 in
Snow Depth Not available.
6:05 AM 8:15 PM
Waning Gibbous, 58% visible
METAR KNTU 260456Z 21012G19KT 10SM BKN280 31/23 A2994 RMK AO2 SLP140 T03110228 403780283
Pressure 29.95 in
Visibility 10.0 miles
Clouds Mostly Cloudy 28000 ft
Heat Index 87 °F
Dew Point 71 °F
Humidity 68%
Rainfall 0.00 in
Snow Depth Not available.
6:05 AM 8:15 PM
Waning Gibbous, 58% visible
METAR KNTU 260456Z 21012G19KT 10SM BKN280 31/23 A2994 RMK AO2 SLP140 T03110228 403780283

10-Day Weather Forecast

Almanac

Astronomy

Jul. 26, 2016 Rise Set
Actual Time
Civil Twilight
Nautical Twilight
Astronomical Twilight
Moon
Length of Visible Light
Length of Day
Tomorrow will be .
, % of the Moon is Illuminated

Today's Extremes

State Highs State Lows

Community

WunderPhotos

Upload Photos

1,927,547 photos uploaded!

WunderBlog® & News

Nearby

Air Quality

  Air Quality AQ Index Pollutant
Not available.

Snow Depth

Station Depth Elevation

Earthquake Activity

City Distance Mag. Time & Date
Minimum magnitude displayed is 2.5.

Coastal Water Temperatures

Place Temperature

Stations

Nearby Weather Stations

Station Location Temp. Windchill Dew Point Humidity Wind Precip. Elev Updated Type
                   

Watches & Warnings

Heat Advisory
Issued: 10:14 PM EDT Jul. 25, 2016 – National Weather Service

... Heat advisory remains in effect from noon to 8 PM EDT
Tuesday...

* heat index values: 105 to 109.

* Impacts: prolonged exposure or any strenuous activity may lead
to heat related illnesses that require immediate medical
attention.

Precautionary/preparedness actions...

A heat advisory means that a period of hot temperatures is
expected. The combination of hot temperatures and high humidity
will combine to create a situation in which heat illnesses are
possible. Drink plenty of fluids... stay in an air-conditioned
room... stay in the shade if possible... and check up on relatives
and neighbors.

Take extra precautions if you work or spend time outside. When
possible... reschedule strenuous activities to early morning or
evening. Know the signs and symptoms of heat exhaustion and heat
stroke. Wear light weight and loose fitting clothing when
possible and drink plenty of water.

To reduce risk during outdoor work... the occupational safety and
health administration recommends scheduling frequent rest breaks
in shaded or air conditioned environments. Anyone overcome by
heat should be moved to a cool and shaded location. Heat stroke
is an emergency - call 9 1 1.